sensor_id;sensor_type;location;lat;lon;timestamp;P1;durP1;ratioP1;P2;durP2;ratioP2
54823;SDS011;40724;53.196;5.980;2022-12-18T00:01:50;71.82;;;34.08;;
54823;SDS011;40724;53.196;5.980;2022-12-18T00:04:21;72.47;;;35.33;;
54823;SDS011;40724;53.196;5.980;2022-12-18T00:06:48;71.40;;;36.63;;
54823;SDS011;40724;53.196;5.980;2022-12-18T00:09:14;65.72;;;33.88;;
54823;SDS011;40724;53.196;5.980;2022-12-18T00:11:40;78.80;;;37.75;;
54823;SDS011;40724;53.196;5.980;2022-12-18T00:14:06;69.25;;;36.67;;
54823;SDS011;40724;53.196;5.980;2022-12-18T00:16:32;75.10;;;35.53;;
54823;SDS011;40724;53.196;5.980;2022-12-18T00:19:00;66.10;;;34.22;;
54823;SDS011;40724;53.196;5.980;2022-12-18T00:21:27;62.08;;;32.88;;
54823;SDS011;40724;53.196;5.980;2022-12-18T00:23:54;61.42;;;32.40;;
54823;SDS011;40724;53.196;5.980;2022-12-18T00:26:22;64.20;;;33.75;;
54823;SDS011;40724;53.196;5.980;2022-12-18T00:28:48;58.72;;;32.33;;
54823;SDS011;40724;53.196;5.980;2022-12-18T00:31:16;60.55;;;32.97;;
54823;SDS011;40724;53.196;5.980;2022-12-18T00:33:43;63.25;;;34.97;;
54823;SDS011;40724;53.196;5.980;2022-12-18T00:36:13;60.33;;;33.17;;
54823;SDS011;40724;53.196;5.980;2022-12-18T00:38:40;66.22;;;33.50;;
54823;SDS011;40724;53.196;5.980;2022-12-18T00:41:09;55.72;;;29.67;;
54823;SDS011;40724;53.196;5.980;2022-12-18T00:43:36;64.20;;;33.40;;
54823;SDS011;40724;53.196;5.980;2022-12-18T00:46:02;77.57;;;33.78;;
54823;SDS011;40724;53.196;5.980;2022-12-18T00:48:28;62.15;;;34.58;;
54823;SDS011;40724;53.196;5.980;2022-12-18T00:50:54;57.03;;;32.10;;
54823;SDS011;40724;53.196;5.980;2022-12-18T00:53:20;67.85;;;35.47;;
54823;SDS011;40724;53.196;5.980;2022-12-18T00:55:46;59.53;;;32.58;;
54823;SDS011;40724;53.196;5.980;2022-12-18T00:58:14;70.20;;;32.33;;
54823;SDS011;40724;53.196;5.980;2022-12-18T01:00:40;69.63;;;33.33;;
54823;SDS011;40724;53.196;5.980;2022-12-18T01:03:06;60.03;;;34.58;;
54823;SDS011;40724;53.196;5.980;2022-12-18T01:05:32;60.13;;;31.98;;
54823;SDS011;40724;53.196;5.980;2022-12-18T01:07:59;73.38;;;34.05;;
54823;SDS011;40724;53.196;5.980;2022-12-18T01:10:25;61.72;;;32.63;;
54823;SDS011;40724;53.196;5.980;2022-12-18T01:12:51;57.85;;;33.83;;
54823;SDS011;40724;53.196;5.980;2022-12-18T01:15:18;58.55;;;30.15;;
54823;SDS011;40724;53.196;5.980;2022-12-18T01:17:44;59.15;;;32.55;;
54823;SDS011;40724;53.196;5.980;2022-12-18T01:20:11;65.40;;;33.17;;
54823;SDS011;40724;53.196;5.980;2022-12-18T01:22:37;68.95;;;33.30;;
54823;SDS011;40724;53.196;5.980;2022-12-18T01:25:03;62.22;;;32.58;;
54823;SDS011;40724;53.196;5.980;2022-12-18T01:27:30;55.50;;;29.95;;
54823;SDS011;40724;53.196;5.980;2022-12-18T01:29:57;65.43;;;31.15;;
54823;SDS011;40724;53.196;5.980;2022-12-18T01:32:23;60.22;;;33.30;;
54823;SDS011;40724;53.196;5.980;2022-12-18T01:34:49;65.45;;;33.42;;
54823;SDS011;40724;53.196;5.980;2022-12-18T01:37:15;64.63;;;33.92;;
54823;SDS011;40724;53.196;5.980;2022-12-18T01:39:41;66.72;;;32.50;;
54823;SDS011;40724;53.196;5.980;2022-12-18T01:42:12;68.95;;;34.70;;
54823;SDS011;40724;53.196;5.980;2022-12-18T01:49:49;59.53;;;34.17;;
54823;SDS011;40724;53.196;5.980;2022-12-18T01:52:15;71.20;;;32.95;;
54823;SDS011;40724;53.196;5.980;2022-12-18T01:54:43;68.78;;;34.10;;
54823;SDS011;40724;53.196;5.980;2022-12-18T01:57:09;65.47;;;34.17;;
54823;SDS011;40724;53.196;5.980;2022-12-18T01:59:35;73.85;;;34.88;;
54823;SDS011;40724;53.196;5.980;2022-12-18T02:02:02;76.40;;;35.17;;
54823;SDS011;40724;53.196;5.980;2022-12-18T02:04:29;63.55;;;30.92;;
54823;SDS011;40724;53.196;5.980;2022-12-18T02:09:35;62.30;;;30.85;;
54823;SDS011;40724;53.196;5.980;2022-12-18T02:12:10;63.63;;;32.30;;
54823;SDS011;40724;53.196;5.980;2022-12-18T02:14:40;64.15;;;30.40;;
54823;SDS011;40724;53.196;5.980;2022-12-18T02:24:36;76.82;;;34.88;;
54823;SDS011;40724;53.196;5.980;2022-12-18T02:27:04;69.40;;;30.63;;
54823;SDS011;40724;53.196;5.980;2022-12-18T02:29:39;67.50;;;35.60;;
54823;SDS011;40724;53.196;5.980;2022-12-18T02:32:08;61.00;;;31.60;;
54823;SDS011;40724;53.196;5.980;2022-12-18T02:34:36;68.05;;;29.75;;
54823;SDS011;40724;53.196;5.980;2022-12-18T02:37:04;72.43;;;33.70;;
54823;SDS011;40724;53.196;5.980;2022-12-18T02:39:32;63.38;;;32.50;;
54823;SDS011;40724;53.196;5.980;2022-12-18T02:41:58;64.97;;;31.65;;
54823;SDS011;40724;53.196;5.980;2022-12-18T02:44:27;61.83;;;30.95;;
54823;SDS011;40724;53.196;5.980;2022-12-18T02:46:53;64.70;;;31.88;;
54823;SDS011;40724;53.196;5.980;2022-12-18T02:52:30;63.65;;;31.27;;
54823;SDS011;40724;53.196;5.980;2022-12-18T02:55:07;64.47;;;29.85;;
54823;SDS011;40724;53.196;5.980;2022-12-18T03:02:33;55.72;;;30.52;;
54823;SDS011;40724;53.196;5.980;2022-12-18T03:07:37;60.50;;;30.33;;
54823;SDS011;40724;53.196;5.980;2022-12-18T03:10:04;52.45;;;27.05;;
54823;SDS011;40724;53.196;5.980;2022-12-18T03:12:34;63.85;;;32.13;;
54823;SDS011;40724;53.196;5.980;2022-12-18T03:15:08;62.20;;;29.58;;
54823;SDS011;40724;53.196;5.980;2022-12-18T03:17:35;58.45;;;29.70;;
54823;SDS011;40724;53.196;5.980;2022-12-18T03:20:04;67.13;;;30.05;;
54823;SDS011;40724;53.196;5.980;2022-12-18T03:22:32;60.08;;;29.13;;
54823;SDS011;40724;53.196;5.980;2022-12-18T03:25:00;67.68;;;32.63;;
54823;SDS011;40724;53.196;5.980;2022-12-18T03:27:26;58.17;;;29.33;;
54823;SDS011;40724;53.196;5.980;2022-12-18T03:30:04;61.20;;;30.85;;
54823;SDS011;40724;53.196;5.980;2022-12-18T03:35:10;65.50;;;32.25;;
54823;SDS011;40724;53.196;5.980;2022-12-18T03:37:37;59.22;;;30.35;;
54823;SDS011;40724;53.196;5.980;2022-12-18T03:40:04;58.85;;;29.42;;
54823;SDS011;40724;53.196;5.980;2022-12-18T03:42:41;70.15;;;32.97;;
54823;SDS011;40724;53.196;5.980;2022-12-18T03:48:05;56.72;;;29.70;;
54823;SDS011;40724;53.196;5.980;2022-12-18T03:53:00;62.58;;;31.73;;
54823;SDS011;40724;53.196;5.980;2022-12-18T03:55:29;52.80;;;30.25;;
54823;SDS011;40724;53.196;5.980;2022-12-18T03:57:57;64.88;;;30.80;;
54823;SDS011;40724;53.196;5.980;2022-12-18T04:00:24;62.85;;;30.67;;
54823;SDS011;40724;53.196;5.980;2022-12-18T04:02:51;60.03;;;31.58;;
54823;SDS011;40724;53.196;5.980;2022-12-18T04:05:20;63.15;;;30.70;;
54823;SDS011;40724;53.196;5.980;2022-12-18T04:07:47;63.78;;;33.13;;
54823;SDS011;40724;53.196;5.980;2022-12-18T04:10:17;66.78;;;31.67;;
54823;SDS011;40724;53.196;5.980;2022-12-18T04:12:44;68.30;;;33.38;;
54823;SDS011;40724;53.196;5.980;2022-12-18T04:15:10;62.80;;;31.98;;
54823;SDS011;40724;53.196;5.980;2022-12-18T04:17:37;71.70;;;31.23;;
54823;SDS011;40724;53.196;5.980;2022-12-18T04:20:03;71.55;;;33.38;;
54823;SDS011;40724;53.196;5.980;2022-12-18T04:22:29;71.13;;;32.58;;
54823;SDS011;40724;53.196;5.980;2022-12-18T04:24:56;63.30;;;31.42;;
54823;SDS011;40724;53.196;5.980;2022-12-18T04:27:22;57.85;;;33.10;;
54823;SDS011;40724;53.196;5.980;2022-12-18T04:29:48;63.28;;;33.88;;
54823;SDS011;40724;53.196;5.980;2022-12-18T04:32:14;61.00;;;31.45;;
54823;SDS011;40724;53.196;5.980;2022-12-18T04:34:40;67.63;;;31.27;;
54823;SDS011;40724;53.196;5.980;2022-12-18T04:37:06;63.50;;;31.08;;
54823;SDS011;40724;53.196;5.980;2022-12-18T04:39:33;71.28;;;31.33;;
54823;SDS011;40724;53.196;5.980;2022-12-18T04:42:00;66.00;;;32.10;;
54823;SDS011;40724;53.196;5.980;2022-12-18T04:44:26;67.20;;;32.67;;
54823;SDS011;40724;53.196;5.980;2022-12-18T04:46:53;55.85;;;31.17;;
54823;SDS011;40724;53.196;5.980;2022-12-18T04:49:19;57.72;;;31.23;;
54823;SDS011;40724;53.196;5.980;2022-12-18T04:51:45;54.28;;;29.95;;
54823;SDS011;40724;53.196;5.980;2022-12-18T04:54:11;67.25;;;32.15;;
54823;SDS011;40724;53.196;5.980;2022-12-18T04:56:37;71.68;;;32.63;;
54823;SDS011;40724;53.196;5.980;2022-12-18T04:59:03;66.28;;;32.35;;
54823;SDS011;40724;53.196;5.980;2022-12-18T05:01:29;58.40;;;28.88;;
54823;SDS011;40724;53.196;5.980;2022-12-18T05:03:56;63.00;;;30.73;;
54823;SDS011;40724;53.196;5.980;2022-12-18T05:06:22;70.13;;;30.70;;
54823;SDS011;40724;53.196;5.980;2022-12-18T05:08:48;53.95;;;27.15;;
54823;SDS011;40724;53.196;5.980;2022-12-18T05:11:14;62.33;;;30.70;;
54823;SDS011;40724;53.196;5.980;2022-12-18T05:13:41;55.33;;;30.15;;
54823;SDS011;40724;53.196;5.980;2022-12-18T05:16:07;44.22;;;25.33;;
54823;SDS011;40724;53.196;5.980;2022-12-18T05:18:34;52.25;;;26.88;;
54823;SDS011;40724;53.196;5.980;2022-12-18T05:21:00;57.88;;;29.38;;
54823;SDS011;40724;53.196;5.980;2022-12-18T05:23:26;51.90;;;27.27;;
54823;SDS011;40724;53.196;5.980;2022-12-18T05:25:59;52.00;;;30.58;;
54823;SDS011;40724;53.196;5.980;2022-12-18T05:28:26;47.25;;;23.98;;
54823;SDS011;40724;53.196;5.980;2022-12-18T05:30:54;60.28;;;27.95;;
54823;SDS011;40724;53.196;5.980;2022-12-18T05:33:21;52.58;;;29.33;;
54823;SDS011;40724;53.196;5.980;2022-12-18T05:35:54;47.78;;;24.67;;
54823;SDS011;40724;53.196;5.980;2022-12-18T05:38:21;48.15;;;25.85;;
54823;SDS011;40724;53.196;5.980;2022-12-18T05:40:47;43.10;;;23.70;;
54823;SDS011;40724;53.196;5.980;2022-12-18T05:43:15;51.25;;;22.88;;
54823;SDS011;40724;53.196;5.980;2022-12-18T05:45:41;42.65;;;23.85;;
54823;SDS011;40724;53.196;5.980;2022-12-18T05:48:07;46.13;;;22.98;;
54823;SDS011;40724;53.196;5.980;2022-12-18T05:50:37;55.20;;;24.20;;
54823;SDS011;40724;53.196;5.980;2022-12-18T05:53:04;50.60;;;25.17;;
54823;SDS011;40724;53.196;5.980;2022-12-18T05:55:34;49.78;;;24.30;;
54823;SDS011;40724;53.196;5.980;2022-12-18T05:58:00;38.47;;;22.85;;
54823;SDS011;40724;53.196;5.980;2022-12-18T06:00:26;39.60;;;22.42;;
54823;SDS011;40724;53.196;5.980;2022-12-18T06:02:52;44.60;;;23.95;;
54823;SDS011;40724;53.196;5.980;2022-12-18T06:05:19;48.38;;;24.17;;
54823;SDS011;40724;53.196;5.980;2022-12-18T06:07:45;50.63;;;24.23;;
54823;SDS011;40724;53.196;5.980;2022-12-18T06:10:11;50.85;;;25.95;;
54823;SDS011;40724;53.196;5.980;2022-12-18T06:12:37;45.55;;;22.08;;
54823;SDS011;40724;53.196;5.980;2022-12-18T06:15:04;44.75;;;23.83;;
54823;SDS011;40724;53.196;5.980;2022-12-18T06:17:30;35.25;;;22.25;;
54823;SDS011;40724;53.196;5.980;2022-12-18T06:19:57;44.50;;;25.00;;
54823;SDS011;40724;53.196;5.980;2022-12-18T06:22:23;38.30;;;20.55;;
54823;SDS011;40724;53.196;5.980;2022-12-18T06:24:49;45.50;;;20.83;;
54823;SDS011;40724;53.196;5.980;2022-12-18T06:27:16;44.70;;;22.75;;
54823;SDS011;40724;53.196;5.980;2022-12-18T06:29:42;43.30;;;22.00;;
54823;SDS011;40724;53.196;5.980;2022-12-18T06:32:08;38.25;;;20.42;;
54823;SDS011;40724;53.196;5.980;2022-12-18T06:34:34;42.50;;;23.63;;
54823;SDS011;40724;53.196;5.980;2022-12-18T06:37:02;39.08;;;22.42;;
54823;SDS011;40724;53.196;5.980;2022-12-18T06:39:29;39.85;;;20.42;;
54823;SDS011;40724;53.196;5.980;2022-12-18T06:41:55;43.97;;;21.00;;
54823;SDS011;40724;53.196;5.980;2022-12-18T06:44:21;43.03;;;20.73;;
54823;SDS011;40724;53.196;5.980;2022-12-18T06:46:47;42.10;;;22.85;;
54823;SDS011;40724;53.196;5.980;2022-12-18T06:49:13;37.35;;;21.33;;
54823;SDS011;40724;53.196;5.980;2022-12-18T06:51:41;40.85;;;20.77;;
54823;SDS011;40724;53.196;5.980;2022-12-18T06:54:07;41.47;;;20.10;;
54823;SDS011;40724;53.196;5.980;2022-12-18T06:56:34;41.95;;;20.73;;
54823;SDS011;40724;53.196;5.980;2022-12-18T06:59:00;38.75;;;20.48;;
54823;SDS011;40724;53.196;5.980;2022-12-18T07:01:26;36.80;;;19.75;;
54823;SDS011;40724;53.196;5.980;2022-12-18T07:03:53;34.10;;;19.20;;
54823;SDS011;40724;53.196;5.980;2022-12-18T07:06:20;35.25;;;18.60;;
54823;SDS011;40724;53.196;5.980;2022-12-18T07:08:46;37.05;;;18.42;;
54823;SDS011;40724;53.196;5.980;2022-12-18T07:11:13;39.35;;;21.65;;
54823;SDS011;40724;53.196;5.980;2022-12-18T07:13:39;33.83;;;20.17;;
54823;SDS011;40724;53.196;5.980;2022-12-18T07:16:06;35.97;;;18.67;;
54823;SDS011;40724;53.196;5.980;2022-12-18T07:18:33;29.85;;;18.02;;
54823;SDS011;40724;53.196;5.980;2022-12-18T07:21:02;39.92;;;19.10;;
54823;SDS011;40724;53.196;5.980;2022-12-18T07:23:28;29.80;;;17.45;;
54823;SDS011;40724;53.196;5.980;2022-12-18T07:25:54;33.08;;;20.38;;
54823;SDS011;40724;53.196;5.980;2022-12-18T07:28:20;35.88;;;20.40;;
54823;SDS011;40724;53.196;5.980;2022-12-18T07:30:46;31.08;;;17.52;;
54823;SDS011;40724;53.196;5.980;2022-12-18T07:33:12;34.22;;;17.95;;
54823;SDS011;40724;53.196;5.980;2022-12-18T07:35:38;27.95;;;16.17;;
54823;SDS011;40724;53.196;5.980;2022-12-18T07:38:05;32.15;;;17.17;;
54823;SDS011;40724;53.196;5.980;2022-12-18T07:40:31;40.53;;;17.90;;
54823;SDS011;40724;53.196;5.980;2022-12-18T07:42:57;30.65;;;17.48;;
54823;SDS011;40724;53.196;5.980;2022-12-18T07:45:23;29.55;;;17.88;;
54823;SDS011;40724;53.196;5.980;2022-12-18T07:47:49;27.55;;;16.60;;
54823;SDS011;40724;53.196;5.980;2022-12-18T07:50:16;31.90;;;17.40;;
54823;SDS011;40724;53.196;5.980;2022-12-18T07:52:42;30.77;;;17.95;;
54823;SDS011;40724;53.196;5.980;2022-12-18T07:55:08;29.45;;;16.73;;
54823;SDS011;40724;53.196;5.980;2022-12-18T07:57:34;33.35;;;16.65;;
54823;SDS011;40724;53.196;5.980;2022-12-18T08:00:00;26.13;;;16.67;;
54823;SDS011;40724;53.196;5.980;2022-12-18T08:02:27;27.80;;;16.23;;
54823;SDS011;40724;53.196;5.980;2022-12-18T08:04:55;27.75;;;16.27;;
54823;SDS011;40724;53.196;5.980;2022-12-18T08:07:22;37.20;;;18.65;;
54823;SDS011;40724;53.196;5.980;2022-12-18T08:09:48;28.33;;;15.55;;
54823;SDS011;40724;53.196;5.980;2022-12-18T08:12:14;31.30;;;17.45;;
54823;SDS011;40724;53.196;5.980;2022-12-18T08:14:40;29.33;;;15.90;;
54823;SDS011;40724;53.196;5.980;2022-12-18T08:17:06;30.60;;;16.13;;
54823;SDS011;40724;53.196;5.980;2022-12-18T08:19:32;30.05;;;16.25;;
54823;SDS011;40724;53.196;5.980;2022-12-18T08:21:58;29.58;;;16.35;;
54823;SDS011;40724;53.196;5.980;2022-12-18T08:24:25;26.52;;;16.42;;
54823;SDS011;40724;53.196;5.980;2022-12-18T08:26:51;27.15;;;14.85;;
54823;SDS011;40724;53.196;5.980;2022-12-18T08:29:17;26.75;;;15.75;;
54823;SDS011;40724;53.196;5.980;2022-12-18T08:31:43;28.38;;;14.30;;
54823;SDS011;40724;53.196;5.980;2022-12-18T08:34:09;26.33;;;16.05;;
54823;SDS011;40724;53.196;5.980;2022-12-18T08:36:35;27.25;;;16.58;;
54823;SDS011;40724;53.196;5.980;2022-12-18T08:39:01;29.10;;;16.83;;
54823;SDS011;40724;53.196;5.980;2022-12-18T08:41:28;26.40;;;15.85;;
54823;SDS011;40724;53.196;5.980;2022-12-18T08:43:54;25.17;;;15.98;;
54823;SDS011;40724;53.196;5.980;2022-12-18T08:46:39;31.00;;;17.20;;
54823;SDS011;40724;53.196;5.980;2022-12-18T08:49:06;24.65;;;14.82;;
54823;SDS011;40724;53.196;5.980;2022-12-18T08:51:33;29.45;;;16.80;;
54823;SDS011;40724;53.196;5.980;2022-12-18T08:53:59;26.02;;;14.57;;
54823;SDS011;40724;53.196;5.980;2022-12-18T08:56:26;28.73;;;17.02;;
54823;SDS011;40724;53.196;5.980;2022-12-18T08:58:52;31.85;;;15.20;;
54823;SDS011;40724;53.196;5.980;2022-12-18T09:01:19;24.42;;;14.02;;
54823;SDS011;40724;53.196;5.980;2022-12-18T09:03:45;25.35;;;14.55;;
54823;SDS011;40724;53.196;5.980;2022-12-18T09:06:15;24.98;;;13.70;;
54823;SDS011;40724;53.196;5.980;2022-12-18T09:08:42;28.17;;;16.27;;
54823;SDS011;40724;53.196;5.980;2022-12-18T09:11:11;25.35;;;13.88;;
54823;SDS011;40724;53.196;5.980;2022-12-18T09:13:38;26.48;;;15.07;;
54823;SDS011;40724;53.196;5.980;2022-12-18T09:16:05;24.23;;;12.85;;
54823;SDS011;40724;53.196;5.980;2022-12-18T09:18:31;21.23;;;12.52;;
54823;SDS011;40724;53.196;5.980;2022-12-18T09:20:57;24.58;;;13.38;;
54823;SDS011;40724;53.196;5.980;2022-12-18T09:23:23;24.67;;;13.23;;
54823;SDS011;40724;53.196;5.980;2022-12-18T09:25:49;20.73;;;13.90;;
54823;SDS011;40724;53.196;5.980;2022-12-18T09:28:16;18.65;;;12.63;;
54823;SDS011;40724;53.196;5.980;2022-12-18T09:30:51;22.17;;;13.20;;
54823;SDS011;40724;53.196;5.980;2022-12-18T09:33:17;21.40;;;13.43;;
54823;SDS011;40724;53.196;5.980;2022-12-18T09:35:44;24.90;;;13.00;;
54823;SDS011;40724;53.196;5.980;2022-12-18T09:38:11;22.02;;;12.70;;
54823;SDS011;40724;53.196;5.980;2022-12-18T09:40:45;27.02;;;13.98;;
54823;SDS011;40724;53.196;5.980;2022-12-18T09:43:14;20.85;;;11.57;;
54823;SDS011;40724;53.196;5.980;2022-12-18T09:45:42;20.80;;;12.98;;
54823;SDS011;40724;53.196;5.980;2022-12-18T09:48:21;20.45;;;11.57;;
54823;SDS011;40724;53.196;5.980;2022-12-18T09:50:49;21.48;;;12.55;;
54823;SDS011;40724;53.196;5.980;2022-12-18T09:53:18;21.77;;;12.10;;
54823;SDS011;40724;53.196;5.980;2022-12-18T09:55:46;19.73;;;12.48;;
54823;SDS011;40724;53.196;5.980;2022-12-18T09:58:47;18.00;;;11.77;;
54823;SDS011;40724;53.196;5.980;2022-12-18T10:01:09;27.25;;;12.90;;
54823;SDS011;40724;53.196;5.980;2022-12-18T10:03:36;19.55;;;13.25;;
54823;SDS011;40724;53.196;5.980;2022-12-18T10:08:40;18.15;;;10.98;;
54823;SDS011;40724;53.196;5.980;2022-12-18T10:11:14;16.50;;;9.38;;
54823;SDS011;40724;53.196;5.980;2022-12-18T10:13:45;15.68;;;10.93;;
54823;SDS011;40724;53.196;5.980;2022-12-18T10:21:23;15.00;;;9.73;;
54823;SDS011;40724;53.196;5.980;2022-12-18T10:23:59;14.00;;;9.90;;
54823;SDS011;40724;53.196;5.980;2022-12-18T10:26:28;16.50;;;10.07;;
54823;SDS011;40724;53.196;5.980;2022-12-18T10:28:56;18.45;;;10.13;;
54823;SDS011;40724;53.196;5.980;2022-12-18T10:31:23;14.18;;;9.45;;
54823;SDS011;40724;53.196;5.980;2022-12-18T10:33:50;17.27;;;9.48;;
54823;SDS011;40724;53.196;5.980;2022-12-18T10:36:16;15.63;;;8.82;;
54823;SDS011;40724;53.196;5.980;2022-12-18T10:38:42;15.02;;;11.10;;
54823;SDS011;40724;53.196;5.980;2022-12-18T10:43:45;18.85;;;9.85;;
54823;SDS011;40724;53.196;5.980;2022-12-18T10:54:05;16.77;;;8.63;;
54823;SDS011;40724;53.196;5.980;2022-12-18T10:56:35;15.95;;;10.40;;
54823;SDS011;40724;53.196;5.980;2022-12-18T10:59:06;15.25;;;8.73;;
54823;SDS011;40724;53.196;5.980;2022-12-18T11:04:04;15.32;;;9.50;;
54823;SDS011;40724;53.196;5.980;2022-12-18T11:06:33;19.63;;;11.57;;
54823;SDS011;40724;53.196;5.980;2022-12-18T11:09:04;19.95;;;10.13;;
54823;SDS011;40724;53.196;5.980;2022-12-18T11:11:31;18.17;;;11.10;;
54823;SDS011;40724;53.196;5.980;2022-12-18T11:16:24;21.58;;;10.77;;
54823;SDS011;40724;53.196;5.980;2022-12-18T11:18:50;16.90;;;11.60;;
54823;SDS011;40724;53.196;5.980;2022-12-18T11:21:17;15.20;;;9.98;;
54823;SDS011;40724;53.196;5.980;2022-12-18T11:23:47;19.83;;;10.45;;
54823;SDS011;40724;53.196;5.980;2022-12-18T11:26:14;15.82;;;10.23;;
54823;SDS011;40724;53.196;5.980;2022-12-18T11:28:41;21.08;;;11.18;;
54823;SDS011;40724;53.196;5.980;2022-12-18T11:33:35;17.35;;;10.27;;
54823;SDS011;40724;53.196;5.980;2022-12-18T11:36:02;16.02;;;9.82;;
54823;SDS011;40724;53.196;5.980;2022-12-18T11:38:31;15.73;;;10.90;;
54823;SDS011;40724;53.196;5.980;2022-12-18T11:41:10;18.38;;;10.65;;
54823;SDS011;40724;53.196;5.980;2022-12-18T11:46:10;17.27;;;10.38;;
54823;SDS011;40724;53.196;5.980;2022-12-18T11:48:43;17.85;;;10.10;;
54823;SDS011;40724;53.196;5.980;2022-12-18T11:51:14;14.20;;;8.23;;
54823;SDS011;40724;53.196;5.980;2022-12-18T11:53:44;15.43;;;9.82;;
54823;SDS011;40724;53.196;5.980;2022-12-18T12:01:22;16.00;;;8.70;;
54823;SDS011;40724;53.196;5.980;2022-12-18T12:09:02;11.75;;;7.80;;
54823;SDS011;40724;53.196;5.980;2022-12-18T12:14:15;14.70;;;8.15;;
54823;SDS011;40724;53.196;5.980;2022-12-18T12:19:20;13.23;;;7.75;;
54823;SDS011;40724;53.196;5.980;2022-12-18T12:24:52;15.82;;;9.63;;
54823;SDS011;40724;53.196;5.980;2022-12-18T12:32:33;12.25;;;7.88;;
54823;SDS011;40724;53.196;5.980;2022-12-18T12:35:25;13.63;;;7.20;;
54823;SDS011;40724;53.196;5.980;2022-12-18T12:40:18;14.50;;;8.02;;
54823;SDS011;40724;53.196;5.980;2022-12-18T12:42:46;10.10;;;6.85;;
54823;SDS011;40724;53.196;5.980;2022-12-18T12:51:04;12.73;;;7.50;;
54823;SDS011;40724;53.196;5.980;2022-12-18T12:53:34;11.98;;;7.65;;
54823;SDS011;40724;53.196;5.980;2022-12-18T12:56:01;10.07;;;7.13;;
54823;SDS011;40724;53.196;5.980;2022-12-18T13:01:14;10.20;;;6.45;;
54823;SDS011;40724;53.196;5.980;2022-12-18T13:06:15;11.70;;;5.97;;
54823;SDS011;40724;53.196;5.980;2022-12-18T13:08:57;10.32;;;6.45;;
54823;SDS011;40724;53.196;5.980;2022-12-18T13:11:31;8.27;;;5.53;;
54823;SDS011;40724;53.196;5.980;2022-12-18T13:14:20;10.85;;;6.88;;
54823;SDS011;40724;53.196;5.980;2022-12-18T13:16:48;15.02;;;6.95;;
54823;SDS011;40724;53.196;5.980;2022-12-18T13:19:23;11.05;;;5.03;;
54823;SDS011;40724;53.196;5.980;2022-12-18T13:21:52;8.52;;;5.63;;
54823;SDS011;40724;53.196;5.980;2022-12-18T13:24:26;8.63;;;5.57;;
54823;SDS011;40724;53.196;5.980;2022-12-18T13:26:53;9.05;;;5.07;;
54823;SDS011;40724;53.196;5.980;2022-12-18T13:32:22;7.90;;;5.63;;
54823;SDS011;40724;53.196;5.980;2022-12-18T13:34:49;8.73;;;5.75;;
54823;SDS011;40724;53.196;5.980;2022-12-18T13:40:00;10.30;;;5.55;;
54823;SDS011;40724;53.196;5.980;2022-12-18T13:42:37;7.60;;;5.07;;
54823;SDS011;40724;53.196;5.980;2022-12-18T13:45:35;6.50;;;4.35;;
54823;SDS011;40724;53.196;5.980;2022-12-18T13:48:02;11.52;;;5.55;;
54823;SDS011;40724;53.196;5.980;2022-12-18T13:50:29;10.30;;;6.47;;
54823;SDS011;40724;53.196;5.980;2022-12-18T13:52:55;8.63;;;5.40;;
54823;SDS011;40724;53.196;5.980;2022-12-18T13:55:21;9.90;;;5.05;;
54823;SDS011;40724;53.196;5.980;2022-12-18T13:57:48;8.70;;;4.85;;
54823;SDS011;40724;53.196;5.980;2022-12-18T14:00:23;8.90;;;5.25;;
54823;SDS011;40724;53.196;5.980;2022-12-18T14:02:50;9.85;;;5.80;;
54823;SDS011;40724;53.196;5.980;2022-12-18T14:05:26;8.63;;;5.75;;
54823;SDS011;40724;53.196;5.980;2022-12-18T14:07:53;8.15;;;5.65;;
54823;SDS011;40724;53.196;5.980;2022-12-18T14:10:20;7.68;;;5.35;;
54823;SDS011;40724;53.196;5.980;2022-12-18T14:12:47;9.13;;;5.32;;
54823;SDS011;40724;53.196;5.980;2022-12-18T14:17:59;8.23;;;5.68;;
54823;SDS011;40724;53.196;5.980;2022-12-18T14:20:26;9.15;;;5.28;;
54823;SDS011;40724;53.196;5.980;2022-12-18T14:22:52;9.13;;;5.68;;
54823;SDS011;40724;53.196;5.980;2022-12-18T14:25:20;12.07;;;5.57;;
54823;SDS011;40724;53.196;5.980;2022-12-18T14:27:47;11.38;;;6.35;;
54823;SDS011;40724;53.196;5.980;2022-12-18T14:33:09;9.68;;;6.78;;
54823;SDS011;40724;53.196;5.980;2022-12-18T14:35:40;9.20;;;5.20;;
54823;SDS011;40724;53.196;5.980;2022-12-18T14:40:51;13.80;;;6.63;;
54823;SDS011;40724;53.196;5.980;2022-12-18T14:43:17;8.50;;;5.40;;
54823;SDS011;40724;53.196;5.980;2022-12-18T14:45:44;8.65;;;5.88;;
54823;SDS011;40724;53.196;5.980;2022-12-18T14:50:37;8.30;;;5.55;;
54823;SDS011;40724;53.196;5.980;2022-12-18T14:53:03;9.48;;;5.30;;
54823;SDS011;40724;53.196;5.980;2022-12-18T14:55:30;6.22;;;5.07;;
54823;SDS011;40724;53.196;5.980;2022-12-18T14:57:56;8.57;;;5.05;;
54823;SDS011;40724;53.196;5.980;2022-12-18T15:00:23;10.05;;;5.72;;
54823;SDS011;40724;53.196;5.980;2022-12-18T15:02:54;8.75;;;5.68;;
54823;SDS011;40724;53.196;5.980;2022-12-18T15:07:54;10.23;;;6.40;;
54823;SDS011;40724;53.196;5.980;2022-12-18T15:10:24;10.13;;;6.10;;
54823;SDS011;40724;53.196;5.980;2022-12-18T15:20:27;9.23;;;5.50;;
54823;SDS011;40724;53.196;5.980;2022-12-18T15:22:53;9.27;;;6.05;;
54823;SDS011;40724;53.196;5.980;2022-12-18T15:25:25;14.27;;;8.18;;
54823;SDS011;40724;53.196;5.980;2022-12-18T15:27:53;10.63;;;6.25;;
54823;SDS011;40724;53.196;5.980;2022-12-18T15:30:20;12.15;;;7.13;;
54823;SDS011;40724;53.196;5.980;2022-12-18T15:32:47;11.18;;;6.82;;
54823;SDS011;40724;53.196;5.980;2022-12-18T15:35:15;12.38;;;6.88;;
54823;SDS011;40724;53.196;5.980;2022-12-18T15:37:42;14.48;;;6.97;;
54823;SDS011;40724;53.196;5.980;2022-12-18T15:40:11;11.20;;;7.15;;
54823;SDS011;40724;53.196;5.980;2022-12-18T15:42:37;14.45;;;7.70;;
54823;SDS011;40724;53.196;5.980;2022-12-18T15:45:22;12.10;;;8.20;;
54823;SDS011;40724;53.196;5.980;2022-12-18T15:47:48;14.43;;;6.70;;
54823;SDS011;40724;53.196;5.980;2022-12-18T15:50:14;14.18;;;7.93;;
54823;SDS011;40724;53.196;5.980;2022-12-18T15:52:41;13.55;;;7.07;;
54823;SDS011;40724;53.196;5.980;2022-12-18T15:55:15;8.52;;;5.18;;
54823;SDS011;40724;53.196;5.980;2022-12-18T15:58:00;8.55;;;5.47;;
54823;SDS011;40724;53.196;5.980;2022-12-18T16:00:26;14.07;;;7.30;;
54823;SDS011;40724;53.196;5.980;2022-12-18T16:02:53;18.27;;;9.45;;
54823;SDS011;40724;53.196;5.980;2022-12-18T16:05:20;12.10;;;7.57;;
54823;SDS011;40724;53.196;5.980;2022-12-18T16:07:47;12.90;;;6.15;;
54823;SDS011;40724;53.196;5.980;2022-12-18T16:10:14;13.40;;;6.22;;
54823;SDS011;40724;53.196;5.980;2022-12-18T16:12:40;11.05;;;6.45;;
54823;SDS011;40724;53.196;5.980;2022-12-18T16:15:07;11.07;;;7.00;;
54823;SDS011;40724;53.196;5.980;2022-12-18T16:17:33;11.15;;;6.88;;
54823;SDS011;40724;53.196;5.980;2022-12-18T16:19:59;14.43;;;7.60;;
54823;SDS011;40724;53.196;5.980;2022-12-18T16:22:26;9.50;;;6.47;;
54823;SDS011;40724;53.196;5.980;2022-12-18T16:24:53;11.23;;;6.50;;
54823;SDS011;40724;53.196;5.980;2022-12-18T16:27:20;8.02;;;5.65;;
54823;SDS011;40724;53.196;5.980;2022-12-18T16:29:46;9.27;;;5.65;;
54823;SDS011;40724;53.196;5.980;2022-12-18T16:32:13;11.63;;;7.00;;
54823;SDS011;40724;53.196;5.980;2022-12-18T16:34:40;10.48;;;6.72;;
54823;SDS011;40724;53.196;5.980;2022-12-18T16:37:08;11.05;;;6.93;;